Time;durP1;ratioP1;P1;durP2;ratioP2;P2;SDS_P1;SDS_P2;PMS_P1;PMS_P2;Temp;Humidity;BMP_temperature;BMP_pressure;BME280_temperature;BME280_humidity;BME280_pressure;Samples;Min_cycle;Max_cycle;Signal;HPM_P1;HPM_P2
2022/05/10 00:00:19;;;;;;;8.98;2.63;;;;;;;-146.18;100.00;67994.34;10128917;28;20042;-65
2022/05/10 00:05:25;;;;;;;5.93;2.30;;;;;;;-146.18;100.00;67994.34;10141822;28;20043;-66
2022/05/10 00:10:22;;;;;;;8.13;2.30;;;;;;;-146.18;100.00;67994.34;10142921;28;20054;-65
2022/05/10 00:15:19;;;;;;;9.02;2.30;;;;;;;-146.18;100.00;67994.34;10131059;28;20562;-64
2022/05/10 00:20:19;;;;;;;7.57;2.53;;;;;;;-146.18;100.00;67994.34;10144817;28;20105;-65
2022/05/10 00:25:20;;;;;;;7.72;2.25;;;;;;;-146.18;100.00;67994.34;10138370;28;20627;-65
2022/05/10 00:30:17;;;;;;;7.22;2.42;;;;;;;-146.18;100.00;67994.34;10140931;28;20722;-66
2022/05/10 00:35:18;;;;;;;9.25;2.55;;;;;;;-146.18;100.00;67994.34;10131698;28;20078;-67
2022/05/10 00:40:17;;;;;;;9.73;2.38;;;;;;;-146.18;100.00;67994.34;10128366;28;20058;-67
2022/05/10 00:45:18;;;;;;;7.07;2.67;;;;;;;-146.18;100.00;67994.34;10130470;28;20058;-67
2022/05/10 00:50:28;;;;;;;9.07;2.35;;;;;;;-146.18;100.00;67994.34;10142532;28;20055;-67
2022/05/10 00:55:34;;;;;;;5.97;2.05;;;;;;;-146.18;100.00;67994.34;10129934;28;20070;-67
2022/05/10 01:00:32;;;;;;;8.52;2.70;;;;;;;-146.18;100.00;67994.34;10144470;28;20564;-67
2022/05/10 01:05:53;;;;;;;8.55;2.60;;;;;;;-146.18;100.00;67994.34;10131325;28;20158;-65
2022/05/10 01:10:58;;;;;;;5.15;2.20;;;;;;;-146.18;100.00;67994.34;10124402;28;20105;-66
2022/05/10 01:16:04;;;;;;;7.78;2.50;;;;;;;-146.18;100.00;67994.34;10141030;28;20413;-64
2022/05/10 01:21:15;;;;;;;8.70;2.90;;;;;;;-146.18;100.00;67994.34;10134886;28;20085;-65
2022/05/10 01:26:22;;;;;;;7.47;2.20;;;;;;;-146.18;100.00;67994.34;10128756;28;20125;-65
2022/05/10 01:31:25;;;;;;;8.23;2.63;;;;;;;-146.18;100.00;67994.34;10131666;28;20085;-65
2022/05/10 01:36:26;;;;;;;;;;;;;;;-146.18;100.00;67994.34;10135013;28;20098;-64
2022/05/10 01:41:44;;;;;;;8.55;2.75;;;;;;;-146.18;100.00;67994.34;10148955;28;20013;-66
2022/05/10 01:46:40;;;;;;;5.68;2.15;;;;;;;-146.18;100.00;67994.34;10138243;28;20573;-66
2022/05/10 01:51:48;;;;;;;11.60;2.90;;;;;;;-146.18;100.00;67994.34;10146331;28;20082;-66
2022/05/10 01:56:44;;;;;;;7.63;2.70;;;;;;;-146.18;100.00;67994.34;10129706;28;20161;-66
2022/05/10 02:01:42;;;;;;;6.63;2.40;;;;;;;-146.18;100.00;67994.34;10150546;28;20120;-66
2022/05/10 02:06:50;;;;;;;7.35;2.42;;;;;;;-146.18;100.00;67994.34;10140393;28;20054;-66
2022/05/10 02:11:55;;;;;;;10.02;2.65;;;;;;;-146.18;100.00;67994.34;10150881;28;20109;-66
2022/05/10 02:17:12;;;;;;;9.48;2.75;;;;;;;-146.18;100.00;67994.34;10140394;28;20149;-66
2022/05/10 02:22:14;;;;;;;8.23;3.50;;;;;;;-146.18;100.00;67994.34;10144963;28;20070;-67
2022/05/10 02:27:19;;;;;;;11.43;3.22;;;;;;;-146.18;100.00;67994.34;10138293;28;20165;-67
2022/05/10 02:37:39;;;;;;;7.00;2.70;;;;;;;-146.18;100.00;67994.34;10139766;28;20144;-66
2022/05/10 02:42:36;;;;;;;8.10;3.03;;;;;;;-146.18;100.00;67994.34;10151075;28;20042;-66
2022/05/10 02:47:41;;;;;;;9.95;2.63;;;;;;;-146.18;100.00;67994.34;10142347;28;20497;-66
2022/05/10 02:52:39;;;;;;;8.77;2.70;;;;;;;-146.18;100.00;67994.34;10150916;28;20077;-67
2022/05/10 02:57:36;;;;;;;7.60;2.53;;;;;;;-146.18;100.00;67994.34;10143588;28;20137;-66
2022/05/10 03:02:37;;;;;;;8.30;3.00;;;;;;;-146.18;100.00;67994.34;10149990;28;20556;-66
2022/05/10 03:07:33;;;;;;;8.95;2.72;;;;;;;-146.18;100.00;67994.34;10136072;28;20185;-67
2022/05/10 03:12:30;;;;;;;5.90;2.53;;;;;;;-146.18;100.00;67994.34;10145465;28;20108;-66
2022/05/10 03:17:26;;;;;;;6.90;3.30;;;;;;;-146.18;100.00;67994.34;10140951;28;20125;-66
2022/05/10 03:22:24;;;;;;;8.23;2.55;;;;;;;-146.18;100.00;67994.34;10142050;28;20054;-66
2022/05/10 03:27:21;;;;;;;6.25;2.63;;;;;;;-146.18;100.00;67994.34;10141176;28;20129;-66
2022/05/10 03:32:17;;;;;;;6.47;2.53;;;;;;;-146.18;100.00;67994.34;10136466;28;20562;-66
2022/05/10 03:37:14;;;;;;;10.05;3.05;;;;;;;-146.18;100.00;67994.34;10140163;28;20068;-66
2022/05/10 03:42:11;;;;;;;9.00;2.70;;;;;;;-146.18;100.00;67994.34;10142223;28;20129;-67
2022/05/10 03:47:09;;;;;;;8.40;2.85;;;;;;;-146.18;100.00;67994.34;10137003;28;20046;-65
2022/05/10 03:52:06;;;;;;;7.18;2.90;;;;;;;-146.18;100.00;67994.34;10141135;28;20078;-65
2022/05/10 03:57:03;;;;;;;9.20;3.30;;;;;;;-146.18;100.00;67994.34;10136234;28;20045;-64
2022/05/10 04:01:59;;;;;;;7.75;3.03;;;;;;;-146.18;100.00;67994.34;10139352;28;20050;-64
2022/05/10 04:06:59;;;;;;;10.85;3.17;;;;;;;-146.18;100.00;67994.34;10135226;28;20116;-64
2022/05/10 04:11:55;;;;;;;7.47;2.90;;;;;;;-146.18;100.00;67994.34;10133893;28;20141;-64
2022/05/10 04:16:51;;;;;;;8.63;3.05;;;;;;;-146.18;100.00;67994.34;10134743;28;20054;-64
2022/05/10 04:21:49;;;;;;;5.53;2.90;;;;;;;-146.18;100.00;67994.34;10130280;28;20046;-64
2022/05/10 04:26:47;;;;;;;8.45;3.25;;;;;;;-146.18;100.00;67994.34;10137627;28;20062;-65
2022/05/10 04:31:44;;;;;;;7.57;2.85;;;;;;;-146.18;100.00;67994.34;10134992;28;20070;-64
2022/05/10 04:36:40;;;;;;;10.05;3.22;;;;;;;-146.18;100.00;67994.34;10130755;28;20050;-64
2022/05/10 04:41:38;;;;;;;9.40;2.97;;;;;;;-146.18;100.00;67994.34;10135050;28;20074;-67
2022/05/10 04:46:37;;;;;;;7.00;3.45;;;;;;;-146.18;100.00;67994.34;10129779;28;20070;-67
2022/05/10 04:51:35;;;;;;;10.85;3.55;;;;;;;-146.18;100.00;67994.34;10141046;28;20105;-66
2022/05/10 04:56:31;;;;;;;9.02;3.45;;;;;;;-146.18;100.00;67994.34;10137124;28;20145;-67
2022/05/10 05:01:30;;;;;;;11.32;3.40;;;;;;;-146.18;100.00;67994.34;10141301;28;20559;-66
2022/05/10 05:06:28;;;;;;;10.63;3.50;;;;;;;-146.18;100.00;67994.34;10134274;28;20046;-67
2022/05/10 05:11:25;;;;;;;12.07;4.03;;;;;;;-146.18;100.00;67994.34;10130010;28;20065;-67
2022/05/10 05:16:22;;;;;;;13.05;4.20;;;;;;;-146.18;100.00;67994.34;10123485;28;20050;-63
2022/05/10 05:21:19;;;;;;;11.13;4.25;;;;;;;-146.18;100.00;67994.34;10145184;28;20385;-64
2022/05/10 05:26:15;;;;;;;12.68;3.83;;;;;;;-146.18;100.00;67994.34;10139903;28;20045;-64
2022/05/10 05:31:13;;;;;;;11.25;3.95;;;;;;;-146.18;100.00;67994.34;10145454;28;20401;-64
2022/05/10 05:36:10;;;;;;;12.18;3.53;;;;;;;-146.18;100.00;67994.34;10142051;28;20054;-67
2022/05/10 05:41:06;;;;;;;11.95;3.50;;;;;;;-146.18;100.00;67994.34;10142481;28;20050;-67
2022/05/10 05:46:05;;;;;;;15.80;4.18;;;;;;;-146.18;100.00;67994.34;10142401;28;20081;-68
2022/05/10 05:51:01;;;;;;;13.50;3.70;;;;;;;-146.18;100.00;67994.34;10129691;28;20113;-67
2022/05/10 05:56:09;;;;;;;13.23;3.78;;;;;;;-146.18;100.00;67994.34;10145899;28;20674;-67
2022/05/10 06:01:13;;;;;;;8.27;3.75;;;;;;;-146.18;100.00;67994.34;10148331;28;20161;-67
2022/05/10 06:06:11;;;;;;;9.95;4.18;;;;;;;-146.18;100.00;67994.34;10149735;28;20046;-67
2022/05/10 06:11:13;;;;;;;;;;;;;;;-146.18;100.00;67994.34;10151691;28;20121;-67
2022/05/10 06:16:10;;;;;;;8.45;3.63;;;;;;;-146.18;100.00;67994.34;10147651;28;20443;-68
2022/05/10 06:21:06;;;;;;;14.02;4.10;;;;;;;-146.18;100.00;67994.34;10144541;28;20097;-67
2022/05/10 06:26:03;;;;;;;11.63;3.88;;;;;;;-146.18;100.00;67994.34;10129887;28;20110;-67
2022/05/10 06:31:01;;;;;;;10.88;3.75;;;;;;;-146.18;100.00;67994.34;10131300;28;20046;-67
2022/05/10 06:35:58;;;;;;;8.43;3.90;;;;;;;-146.18;100.00;67994.34;10148407;28;20046;-67
2022/05/10 06:40:57;;;;;;;9.63;4.22;;;;;;;-146.18;100.00;67994.34;10151039;28;20085;-68
2022/05/10 06:45:59;;;;;;;10.38;3.88;;;;;;;-146.18;100.00;67994.34;10140834;28;20065;-68
2022/05/10 06:50:56;;;;;;;8.63;4.10;;;;;;;-146.18;100.00;67994.34;10147008;28;20137;-67
2022/05/10 06:55:52;;;;;;;10.52;3.70;;;;;;;-146.18;100.00;67994.34;10128599;28;20050;-68
2022/05/10 07:00:49;;;;;;;11.90;4.22;;;;;;;-146.18;100.00;67994.34;10150880;28;20078;-67
2022/05/10 07:05:46;;;;;;;8.23;5.00;;;;;;;-146.18;100.00;67994.34;10146031;28;20136;-67
2022/05/10 07:10:43;;;;;;;7.68;4.13;;;;;;;-146.18;100.00;67994.34;10130171;28;20093;-67
2022/05/10 07:15:39;;;;;;;7.10;4.10;;;;;;;-146.18;100.00;67994.34;10139844;28;20141;-68
2022/05/10 07:20:36;;;;;;;11.52;3.88;;;;;;;-146.18;100.00;67994.34;10140169;28;20502;-67
2022/05/10 07:25:33;;;;;;;14.98;4.07;;;;;;;-146.18;100.00;67994.34;10138815;28;20046;-67
2022/05/10 07:30:30;;;;;;;13.38;4.38;;;;;;;-146.18;100.00;67994.34;10145765;28;20116;-68
2022/05/10 07:40:47;;;;;;;11.80;4.30;;;;;;;-146.18;100.00;67994.34;10140069;28;20069;-67
2022/05/10 07:45:46;;;;;;;8.52;3.40;;;;;;;-146.18;100.00;67994.34;10141455;28;20457;-67
2022/05/10 07:50:43;;;;;;;8.57;3.88;;;;;;;-146.18;100.00;67994.34;10150464;28;20141;-67
2022/05/10 07:55:40;;;;;;;7.70;3.55;;;;;;;-146.18;100.00;67994.34;10141174;28;20081;-67
2022/05/10 08:00:38;;;;;;;11.38;3.63;;;;;;;-146.18;100.00;67994.34;10147753;28;20555;-67
2022/05/10 08:05:35;;;;;;;13.95;4.13;;;;;;;-146.18;100.00;67994.34;10140692;28;20058;-67
2022/05/10 08:10:33;;;;;;;7.75;3.58;;;;;;;-146.18;100.00;67994.34;10142983;28;20147;-67
2022/05/10 08:15:30;;;;;;;10.85;4.18;;;;;;;-146.18;100.00;67994.34;10138248;28;20086;-67
2022/05/10 08:20:26;;;;;;;9.43;4.18;;;;;;;-146.18;100.00;67994.34;10148962;28;20047;-67
2022/05/10 08:25:23;;;;;;;12.77;5.28;;;;;;;-146.18;100.00;67994.34;10139781;28;20686;-67
2022/05/10 08:30:20;;;;;;;7.47;3.67;;;;;;;-146.18;100.00;67994.34;10148408;28;20051;-67
2022/05/10 08:35:17;;;;;;;11.35;3.75;;;;;;;-146.18;100.00;67994.34;10135430;28;20049;-67
2022/05/10 08:40:29;;;;;;;13.93;3.50;;;;;;;-146.18;100.00;67994.34;10146394;28;20121;-67
2022/05/10 08:45:27;;;;;;;8.45;3.83;;;;;;;-146.18;100.00;67994.34;10146170;28;20043;-67
2022/05/10 08:50:24;;;;;;;8.73;4.40;;;;;;;-146.18;100.00;67994.34;10136121;28;20081;-67
2022/05/10 08:55:42;;;;;;;10.48;4.00;;;;;;;-146.18;100.00;67994.34;10153819;28;20048;-67
2022/05/10 09:00:49;;;;;;;14.63;4.60;;;;;;;-146.18;100.00;67994.34;10155754;28;20142;-67
2022/05/10 09:05:47;;;;;;;12.00;4.25;;;;;;;-146.18;100.00;67994.34;10147636;28;20046;-67
2022/05/10 09:10:56;;;;;;;12.43;4.13;;;;;;;-146.18;100.00;67994.34;10148968;28;20057;-67
2022/05/10 09:16:03;;;;;;;12.93;4.40;;;;;;;-146.18;100.00;67994.34;10151960;28;20192;-67
2022/05/10 09:21:09;;;;;;;10.73;3.50;;;;;;;-146.18;100.00;67994.34;10150223;28;20065;-67
2022/05/10 09:26:08;;;;;;;8.75;3.70;;;;;;;-146.18;100.00;67994.34;10141137;28;20082;-67
2022/05/10 09:37:26;;;;;;;9.10;3.17;;;;;;;-146.18;100.00;67994.34;10146838;28;20077;-67
2022/05/10 09:42:40;;;;;;;6.72;2.90;;;;;;;-146.18;100.00;67994.34;10154673;28;20713;-67
2022/05/10 09:47:38;;;;;;;6.60;2.60;;;;;;;-146.18;100.00;67994.34;10149864;28;20512;-67
2022/05/10 09:52:35;;;;;;;8.20;2.53;;;;;;;-146.18;100.00;67994.34;10147190;28;20133;-67
2022/05/10 09:57:37;;;;;;;7.47;2.55;;;;;;;-146.18;100.00;67994.34;10144075;28;20189;-67
2022/05/10 10:02:38;;;;;;;8.85;2.60;;;;;;;-146.18;100.00;67994.34;10137682;28;20542;-67
2022/05/10 10:07:48;;;;;;;8.98;2.63;;;;;;;-146.18;100.00;67994.34;10144231;28;20078;-67
2022/05/10 10:12:46;;;;;;;8.68;2.72;;;;;;;-146.18;100.00;67994.34;10145484;28;20081;-67
2022/05/10 10:17:50;;;;;;;5.78;2.50;;;;;;;-146.18;100.00;67994.34;10145891;28;20061;-67
2022/05/10 10:22:50;;;;;;;7.05;2.22;;;;;;;-146.18;100.00;67994.34;10153355;28;20054;-67
2022/05/10 10:27:56;;;;;;;4.97;2.00;;;;;;;-146.18;100.00;67994.34;10137296;28;20054;-67
2022/05/10 10:32:59;;;;;;;8.35;2.58;;;;;;;-146.18;100.00;67994.34;10140173;28;20576;-66
2022/05/10 10:38:06;;;;;;;10.32;2.25;;;;;;;-146.18;100.00;67994.34;10137350;28;20082;-66
2022/05/10 10:43:24;;;;;;;5.82;2.13;;;;;;;-146.18;100.00;67994.34;10132915;28;20727;-67
2022/05/10 10:48:47;;;;;;;8.23;2.60;;;;;;;-146.18;100.00;67994.34;10142670;28;20082;-66
2022/05/10 10:53:46;;;;;;;7.40;2.15;;;;;;;-146.18;100.00;67994.34;10142523;28;20137;-67
2022/05/10 10:58:59;;;;;;;7.40;2.03;;;;;;;-146.18;100.00;67994.34;10127855;28;20051;-67
2022/05/10 11:04:46;;;;;;;8.50;1.70;;;;;;;-146.18;100.00;67994.34;10139968;28;20072;-68
2022/05/10 11:10:08;;;;;;;6.32;1.80;;;;;;;-146.18;100.00;67994.34;10048113;29;20075;-67
2022/05/10 11:15:34;;;;;;;8.70;1.75;;;;;;;-146.18;100.00;67994.34;10121058;28;20058;-67
2022/05/10 11:20:40;;;;;;;6.63;1.80;;;;;;;-146.18;100.00;67994.34;10128691;28;20042;-67
2022/05/10 11:26:05;;;;;;;6.20;2.15;;;;;;;-146.18;100.00;67994.34;10143128;28;20050;-67
2022/05/10 11:31:22;;;;;;;11.38;1.92;;;;;;;-146.18;100.00;67994.34;10141334;28;20125;-67
2022/05/10 11:36:22;;;;;;;8.77;1.90;;;;;;;-146.18;100.00;67994.34;10135472;28;20054;-66
2022/05/10 11:41:36;;;;;;;7.85;1.73;;;;;;;-146.18;100.00;67994.34;10143296;28;20046;-67
2022/05/10 11:46:46;;;;;;;6.75;1.92;;;;;;;-146.18;100.00;67994.34;10138686;28;20134;-67
2022/05/10 11:51:43;;;;;;;7.50;1.73;;;;;;;-146.18;100.00;67994.34;10146652;28;20099;-67
2022/05/10 11:56:41;;;;;;;7.90;2.38;;;;;;;-146.18;100.00;67994.34;10129945;28;20050;-67
2022/05/10 12:01:42;;;;;;;5.65;2.08;;;;;;;-146.18;100.00;67994.34;10141835;28;20089;-67
2022/05/10 12:06:39;;;;;;;10.47;2.43;;;;;;;-146.18;100.00;67994.34;10140186;28;20050;-68
2022/05/10 12:11:40;;;;;;;6.30;1.80;;;;;;;-146.18;100.00;67994.34;10139421;28;20485;-67
2022/05/10 12:21:54;;;;;;;6.88;2.08;;;;;;;-146.18;100.00;67994.34;10140760;28;20080;-67
2022/05/10 12:26:55;;;;;;;8.02;2.38;;;;;;;-146.18;100.00;67994.34;10138251;28;20165;-67
2022/05/10 12:31:58;;;;;;;9.80;2.95;;;;;;;-146.18;100.00;67994.34;10142524;28;20096;-67
2022/05/10 12:37:22;;;;;;;5.85;2.55;;;;;;;-146.18;100.00;67994.34;10145066;28;20499;-67
2022/05/10 12:42:40;;;;;;;9.57;2.65;;;;;;;-146.18;100.00;67994.34;10134306;28;20121;-67
2022/05/10 12:47:37;;;;;;;6.03;2.30;;;;;;;-146.18;100.00;67994.34;10147523;28;20089;-67
2022/05/10 12:52:43;;;;;;;10.30;3.17;;;;;;;-146.18;100.00;67994.34;10146508;28;20476;-67
2022/05/10 12:57:53;;;;;;;7.72;2.10;;;;;;;-146.18;100.00;67994.34;10140292;28;20091;-67
2022/05/10 13:03:05;;;;;;;9.55;2.15;;;;;;;-146.18;100.00;67994.34;10131704;28;20050;-67
2022/05/10 13:08:38;;;;;;;5.13;2.55;;;;;;;-146.18;100.00;67994.34;10141264;28;20590;-67
2022/05/10 13:13:59;;;;;;;5.72;3.00;;;;;;;-146.18;100.00;67994.34;10138758;28;20046;-67
2022/05/10 13:18:56;;;;;;;11.32;3.33;;;;;;;-146.18;100.00;67994.34;10138527;28;20508;-67
2022/05/10 13:23:55;;;;;;;12.27;3.00;;;;;;;-146.18;100.00;67994.34;10140116;28;20118;-67
2022/05/10 13:28:55;;;;;;;7.18;2.90;;;;;;;-146.18;100.00;67994.34;10141349;28;20133;-67
2022/05/10 13:34:08;;;;;;;7.28;3.55;;;;;;;-146.18;100.00;67994.34;10139560;28;20482;-67
2022/05/10 13:39:05;;;;;;;5.05;3.10;;;;;;;-146.18;100.00;67994.34;10151776;28;20178;-67
2022/05/10 13:44:20;;;;;;;5.95;2.80;;;;;;;-146.18;100.00;67994.34;10149235;28;20085;-67
2022/05/10 13:49:24;;;;;;;11.18;3.08;;;;;;;-146.18;100.00;67994.34;10147811;28;20538;-67
2022/05/10 13:54:30;;;;;;;8.13;3.25;;;;;;;-146.18;100.00;67994.34;10152344;28;20046;-67
2022/05/10 13:59:33;;;;;;;5.07;3.03;;;;;;;-146.18;100.00;67994.34;10148297;28;20393;-67
2022/05/10 14:04:30;;;;;;;13.85;4.10;;;;;;;-146.18;100.00;67994.34;10151317;28;20586;-68
2022/05/10 14:09:31;;;;;;;8.68;3.85;;;;;;;-146.18;100.00;67994.34;10152179;28;20061;-67
2022/05/10 14:14:30;;;;;;;10.40;4.03;;;;;;;-146.18;100.00;67994.34;10146771;28;20145;-67
2022/05/10 14:19:42;;;;;;;8.15;4.90;;;;;;;-146.18;100.00;67994.34;10146364;28;20050;-67
2022/05/10 14:24:39;;;;;;;9.63;6.22;;;;;;;-146.18;100.00;67994.34;10145395;28;20088;-67
2022/05/10 14:29:42;;;;;;;14.30;7.10;;;;;;;-146.18;100.00;67994.34;10148018;28;20046;-67
2022/05/10 14:34:54;;;;;;;15.27;7.60;;;;;;;-146.18;100.00;67994.34;10151590;28;20088;-67
2022/05/10 14:39:50;;;;;;;12.57;7.20;;;;;;;-146.18;100.00;67994.34;10132937;28;20172;-67
2022/05/10 14:44:46;;;;;;;15.07;9.27;;;;;;;-146.18;100.00;67994.34;10135474;28;20512;-68
2022/05/10 14:49:46;;;;;;;15.68;9.32;;;;;;;-146.18;100.00;67994.34;10145028;28;20198;-67
2022/05/10 14:54:49;;;;;;;12.43;9.43;;;;;;;-146.18;100.00;67994.34;10133443;28;20063;-68
2022/05/10 14:59:53;;;;;;;16.00;10.27;;;;;;;-146.18;100.00;67994.34;10148986;28;20077;-68
2022/05/10 15:04:50;;;;;;;12.50;9.80;;;;;;;-146.18;100.00;67994.34;10117895;28;20053;-68
2022/05/10 15:09:48;;;;;;;12.95;10.05;;;;;;;-146.18;100.00;67994.34;10148965;28;20086;-68
2022/05/10 15:14:44;;;;;;;11.48;9.68;;;;;;;-146.18;100.00;67994.34;10134665;28;20078;-68
2022/05/10 15:19:41;;;;;;;14.10;10.82;;;;;;;-146.18;100.00;67994.34;10138641;28;20138;-68
2022/05/10 15:24:38;;;;;;;15.70;10.45;;;;;;;-146.18;100.00;67994.34;10142497;28;20574;-68
2022/05/10 15:29:38;;;;;;;13.98;10.68;;;;;;;-146.18;100.00;67994.34;10136218;28;20116;-73
2022/05/10 15:34:43;;;;;;;18.08;10.63;;;;;;;-146.18;100.00;67994.34;10137501;28;20046;-67
2022/05/10 15:39:41;;;;;;;13.77;9.43;;;;;;;-146.18;100.00;67994.34;10140636;28;20708;-66
2022/05/10 15:44:37;;;;;;;14.80;9.05;;;;;;;-146.18;100.00;67994.34;10127945;28;20166;-66
2022/05/10 15:49:34;;;;;;;11.68;8.57;;;;;;;-146.18;100.00;67994.34;10129260;28;20078;-66
2022/05/10 15:54:30;;;;;;;13.40;9.68;;;;;;;-146.18;100.00;67994.34;10140295;28;20137;-66
2022/05/10 15:59:27;;;;;;;12.95;8.75;;;;;;;-146.18;100.00;67994.34;10135866;28;20532;-66
2022/05/10 16:04:23;;;;;;;12.45;8.80;;;;;;;-146.18;100.00;67994.34;10133141;28;20049;-66
2022/05/10 16:09:21;;;;;;;15.70;8.25;;;;;;;-146.18;100.00;67994.34;10135535;28;20105;-67
2022/05/10 16:14:17;;;;;;;12.80;8.77;;;;;;;-146.18;100.00;67994.34;10132858;28;20134;-68
2022/05/10 16:19:14;;;;;;;9.50;8.13;;;;;;;-146.18;100.00;67994.34;10133206;28;20050;-67
2022/05/10 16:24:11;;;;;;;12.00;8.13;;;;;;;-146.18;100.00;67994.34;10131826;28;20046;-67
2022/05/10 16:34:23;;;;;;;12.18;7.95;;;;;;;-146.18;100.00;67994.34;10131936;28;20050;-67
2022/05/10 16:39:19;;;;;;;12.70;8.13;;;;;;;-146.18;100.00;67994.34;10154250;28;20076;-67
2022/05/10 16:44:17;;;;;;;10.77;8.50;;;;;;;-146.18;100.00;67994.34;10149774;28;20120;-67
2022/05/10 16:49:14;;;;;;;10.57;7.00;;;;;;;-146.18;100.00;67994.34;10137372;28;20126;-67
2022/05/10 16:54:17;;;;;;;11.90;8.57;;;;;;;-146.18;100.00;67994.34;10141466;28;20124;-67
2022/05/10 16:59:15;;;;;;;13.63;9.45;;;;;;;-146.18;100.00;67994.34;10152302;28;20050;-67
2022/05/10 17:04:13;;;;;;;15.63;10.48;;;;;;;-146.18;100.00;67994.34;10131903;28;20151;-67
2022/05/10 17:09:10;;;;;;;15.05;10.23;;;;;;;-146.18;100.00;67994.34;10146116;28;20141;-67
2022/05/10 17:14:07;;;;;;;16.23;10.90;;;;;;;-146.18;100.00;67994.34;10156019;28;20130;-67
2022/05/10 17:19:04;;;;;;;18.98;11.40;;;;;;;-146.18;100.00;67994.34;10156036;28;20058;-67
2022/05/10 17:24:01;;;;;;;14.15;8.98;;;;;;;-146.18;100.00;67994.34;10157472;28;20062;-67
2022/05/10 17:29:01;;;;;;;15.63;9.07;;;;;;;-146.18;100.00;67994.34;10146087;28;20034;-67
2022/05/10 17:34:02;;;;;;;18.92;10.40;;;;;;;-146.18;100.00;67994.34;10146797;28;20646;-66
2022/05/10 17:38:59;;;;;;;20.70;9.25;;;;;;;-146.18;100.00;67994.34;10130928;28;20105;-66
2022/05/10 17:43:57;;;;;;;18.98;8.35;;;;;;;-146.18;100.00;67994.34;10127577;28;20625;-66
2022/05/10 17:48:54;;;;;;;16.55;7.60;;;;;;;-146.18;100.00;67994.34;10121788;28;20098;-67
2022/05/10 17:53:52;;;;;;;13.95;6.47;;;;;;;-146.18;100.00;67994.34;10121780;28;20070;-68
2022/05/10 17:58:49;;;;;;;14.80;6.85;;;;;;;-146.18;100.00;67994.34;10119453;28;20233;-67
2022/05/10 18:03:48;;;;;;;15.43;6.68;;;;;;;-146.18;100.00;67994.34;10133686;28;20046;-67
2022/05/10 18:08:46;;;;;;;16.25;6.38;;;;;;;-146.18;100.00;67994.34;10148390;28;20080;-67
2022/05/10 18:13:44;;;;;;;16.27;5.47;;;;;;;-146.18;100.00;67994.34;10138481;28;20054;-68
2022/05/10 18:18:40;;;;;;;15.20;5.22;;;;;;;-146.18;100.00;67994.34;10135033;28;20556;-68
2022/05/10 18:23:40;;;;;;;8.35;4.63;;;;;;;-146.18;100.00;67994.34;10138719;28;20562;-68
2022/05/10 18:28:37;;;;;;;13.60;5.25;;;;;;;-146.18;100.00;67994.34;10137943;28;20459;-68
2022/05/10 18:33:34;;;;;;;11.48;4.32;;;;;;;-146.18;100.00;67994.34;10130608;28;20157;-67
2022/05/10 18:38:31;;;;;;;18.33;5.60;;;;;;;-146.18;100.00;67994.34;10131775;28;20161;-67
2022/05/10 18:43:27;;;;;;;13.18;6.07;;;;;;;-146.18;100.00;67994.34;10139086;28;20081;-67
2022/05/10 18:48:24;;;;;;;12.18;4.38;;;;;;;-146.18;100.00;67994.34;10137472;28;20129;-67
2022/05/10 18:53:20;;;;;;;9.20;3.55;;;;;;;-146.18;100.00;67994.34;10136725;28;20046;-67
2022/05/10 18:58:16;;;;;;;15.30;5.10;;;;;;;-146.18;100.00;67994.34;10131372;28;20566;-67
2022/05/10 19:03:14;;;;;;;9.57;4.85;;;;;;;-146.18;100.00;67994.34;10132035;28;20554;-67
2022/05/10 19:08:11;;;;;;;9.15;5.22;;;;;;;-146.18;100.00;67994.34;10127528;28;20049;-67
2022/05/10 19:13:07;;;;;;;10.73;4.93;;;;;;;-146.18;100.00;67994.34;10139614;28;20046;-67
2022/05/10 19:18:05;;;;;;;10.80;5.07;;;;;;;-146.18;100.00;67994.34;10125769;28;20471;-67
2022/05/10 19:23:03;;;;;;;12.27;4.72;;;;;;;-146.18;100.00;67994.34;10124971;28;20065;-67
2022/05/10 19:27:59;;;;;;;10.57;5.72;;;;;;;-146.18;100.00;67994.34;10134707;28;20057;-67
2022/05/10 19:32:56;;;;;;;11.77;5.90;;;;;;;-146.18;100.00;67994.34;10137448;28;20149;-67
2022/05/10 19:37:53;;;;;;;10.63;5.80;;;;;;;-146.18;100.00;67994.34;10135052;28;20134;-68
2022/05/10 19:42:50;;;;;;;10.98;6.05;;;;;;;-146.18;100.00;67994.34;10136302;28;20622;-67
2022/05/10 19:47:46;;;;;;;13.98;6.47;;;;;;;-146.18;100.00;67994.34;10137871;28;20058;-68
2022/05/10 19:52:43;;;;;;;13.57;6.65;;;;;;;-146.18;100.00;67994.34;10132731;28;20073;-66
2022/05/10 19:57:41;;;;;;;12.73;6.65;;;;;;;-146.18;100.00;67994.34;10126647;28;20090;-65
2022/05/10 20:07:56;;;;;;;11.43;6.60;;;;;;;-146.18;100.00;67994.34;10128614;28;20168;-66
2022/05/10 20:12:53;;;;;;;15.05;7.70;;;;;;;-146.18;100.00;67994.34;10130679;28;20064;-66
2022/05/10 20:17:52;;;;;;;15.82;6.93;;;;;;;-146.18;100.00;67994.34;10129313;28;20058;-66
2022/05/10 20:22:52;;;;;;;12.00;6.93;;;;;;;-146.18;100.00;67994.34;10129060;28;20046;-68
2022/05/10 20:27:48;;;;;;;12.27;7.20;;;;;;;-146.18;100.00;67994.34;10140161;28;20129;-67
2022/05/10 20:32:45;;;;;;;11.80;6.95;;;;;;;-146.18;100.00;67994.34;10140975;28;20137;-68
2022/05/10 20:37:42;;;;;;;12.25;6.40;;;;;;;-146.18;100.00;67994.34;10141117;28;20350;-68
2022/05/10 20:42:41;;;;;;;15.77;7.65;;;;;;;-146.18;100.00;67994.34;10139243;28;20552;-66
2022/05/10 20:47:38;;;;;;;12.65;7.90;;;;;;;-146.18;100.00;67994.34;10139342;28;20054;-66
2022/05/10 20:52:35;;;;;;;14.20;7.85;;;;;;;-146.18;100.00;67994.34;10146481;28;20070;-66
2022/05/10 20:57:31;;;;;;;15.15;8.48;;;;;;;-146.18;100.00;67994.34;10147821;28;20157;-67
2022/05/10 21:02:28;;;;;;;15.38;7.32;;;;;;;-146.18;100.00;67994.34;10147294;28;20520;-67
2022/05/10 21:12:41;;;;;;;16.02;8.25;;;;;;;-146.18;100.00;67994.34;10146049;28;20050;-66
2022/05/10 21:17:37;;;;;;;15.55;9.75;;;;;;;-146.18;100.00;67994.34;10145506;28;20148;-65
2022/05/10 21:22:34;;;;;;;12.40;8.40;;;;;;;-146.18;100.00;67994.34;10145723;28;20074;-67
2022/05/10 21:27:31;;;;;;;15.45;8.90;;;;;;;-146.18;100.00;67994.34;10146107;28;20551;-67
2022/05/10 21:32:28;;;;;;;14.63;8.52;;;;;;;-146.18;100.00;67994.34;10146784;28;20101;-66
2022/05/10 21:37:25;;;;;;;15.10;9.00;;;;;;;-146.18;100.00;67994.34;10147186;28;20077;-69
2022/05/10 21:42:22;;;;;;;12.80;8.38;;;;;;;-146.18;100.00;67994.34;10145046;28;20456;-69
2022/05/10 21:47:18;;;;;;;15.25;10.15;;;;;;;-146.18;100.00;67994.34;10145688;28;20054;-65
2022/05/10 21:52:15;;;;;;;13.55;9.73;;;;;;;-146.18;100.00;67994.34;10147097;28;20042;-67
2022/05/10 21:57:11;;;;;;;15.90;8.80;;;;;;;-146.18;100.00;67994.34;10144349;28;20124;-67
2022/05/10 22:02:08;;;;;;;14.32;9.15;;;;;;;-146.18;100.00;67994.34;10142846;28;20719;-66
2022/05/10 22:07:05;;;;;;;14.15;8.27;;;;;;;-146.18;100.00;67994.34;10144075;28;20047;-66
2022/05/10 22:12:03;;;;;;;17.50;9.02;;;;;;;-146.18;100.00;67994.34;10142085;28;20038;-66
2022/05/10 22:17:00;;;;;;;12.57;8.15;;;;;;;-146.18;100.00;67994.34;10144399;28;20495;-67
2022/05/10 22:22:01;;;;;;;13.25;9.32;;;;;;;-146.18;100.00;67994.34;10143071;28;20054;-68
2022/05/10 22:26:57;;;;;;;13.50;8.77;;;;;;;-146.18;100.00;67994.34;10142877;28;20065;-66
2022/05/10 22:31:54;;;;;;;14.80;8.70;;;;;;;-146.18;100.00;67994.34;10146184;28;20120;-66
2022/05/10 22:36:50;;;;;;;17.67;8.93;;;;;;;-146.18;100.00;67994.34;10138931;28;20133;-64
2022/05/10 22:41:46;;;;;;;10.73;7.50;;;;;;;-146.18;100.00;67994.34;10139846;28;20133;-64
2022/05/10 22:46:43;;;;;;;12.10;8.60;;;;;;;-146.18;100.00;67994.34;10145384;28;20046;-66
2022/05/10 22:51:40;;;;;;;16.33;8.52;;;;;;;-146.18;100.00;67994.34;10144516;28;20512;-67
2022/05/10 22:56:36;;;;;;;14.18;8.98;;;;;;;-146.18;100.00;67994.34;10142259;28;20046;-66